Time;durP1;ratioP1;P1;durP2;ratioP2;P2;SDS_P1;SDS_P2;PMS_P1;PMS_P2;Temp;Humidity;BMP_temperature;BMP_pressure;BME280_temperature;BME280_humidity;BME280_pressure;Samples;Min_cycle;Max_cycle;Signal;HPM_P1;HPM_P2
2023/12/17 00:00:37;;;;;;;39.60;21.43;;;;;;;4.18;100.00;101317.47;4181515;28;20333;-71
2023/12/17 00:03:03;;;;;;;45.47;21.93;;;;;;;4.18;100.00;101326.34;4177905;28;22833;-70
2023/12/17 00:05:47;;;;;;;48.20;19.93;;;;;;;4.30;100.00;101327.47;4178623;28;20365;-70
2023/12/17 00:08:14;;;;;;;46.03;20.70;;;;;;;4.26;100.00;101339.34;4183386;28;20329;-71
2023/12/17 00:10:41;;;;;;;45.67;19.93;;;;;;;4.24;100.00;101328.69;4181040;28;20233;-73
2023/12/17 00:13:07;;;;;;;38.63;20.13;;;;;;;4.25;100.00;101322.38;4186959;28;21142;-69
2023/12/17 00:15:35;;;;;;;42.33;20.93;;;;;;;4.30;100.00;101316.75;4176179;28;20296;-74
2023/12/17 00:18:02;;;;;;;42.40;19.77;;;;;;;4.37;100.00;101319.97;4173567;28;20300;-71
2023/12/17 00:20:28;;;;;;;42.33;18.40;;;;;;;4.37;100.00;101304.75;4189590;28;20719;-71
2023/12/17 00:22:56;;;;;;;35.33;18.73;;;;;;;4.43;100.00;101322.31;4184654;28;23442;-71
2023/12/17 00:25:22;;;;;;;35.67;16.57;;;;;;;4.50;100.00;101294.22;4176518;28;20234;-72
2023/12/17 00:27:49;;;;;;;33.63;17.23;;;;;;;4.50;100.00;101293.31;4171401;28;23577;-70
2023/12/17 00:30:16;;;;;;;40.87;17.27;;;;;;;4.53;100.00;101317.28;4186465;28;20423;-72
2023/12/17 00:32:43;;;;;;;38.63;16.87;;;;;;;4.60;100.00;101314.19;4203638;28;20283;-70
2023/12/17 00:35:10;;;;;;;40.33;17.47;;;;;;;4.59;100.00;101311.56;4176639;28;20255;-70
2023/12/17 00:37:37;;;;;;;38.20;16.53;;;;;;;4.66;100.00;101323.69;4181612;28;22156;-70
2023/12/17 00:40:05;;;;;;;37.00;17.27;;;;;;;4.61;100.00;101325.78;4184747;28;20340;-72
2023/12/17 00:42:31;;;;;;;33.70;16.20;;;;;;;4.66;100.00;101318.31;4182083;28;21595;-70
2023/12/17 00:44:58;;;;;;;34.40;15.23;;;;;;;4.63;100.00;101307.78;4180491;28;20417;-70
2023/12/17 00:47:25;;;;;;;44.47;15.83;;;;;;;4.70;100.00;101310.97;4186881;28;21768;-71
2023/12/17 00:49:52;;;;;;;37.50;15.60;;;;;;;4.72;100.00;101314.44;4181963;28;20403;-73
2023/12/17 00:52:22;;;;;;;32.07;16.00;;;;;;;4.76;100.00;101324.03;4180847;28;20312;-69
2023/12/17 00:54:49;;;;;;;33.57;15.83;;;;;;;4.81;100.00;101318.41;4183585;28;21714;-74
2023/12/17 00:57:15;;;;;;;38.20;15.40;;;;;;;4.84;100.00;101321.75;4180589;28;20229;-71
2023/12/17 00:59:42;;;;;;;31.43;14.53;;;;;;;4.82;100.00;101325.50;4181472;28;20242;-71
2023/12/17 01:02:09;;;;;;;33.20;14.70;;;;;;;4.89;100.00;101314.34;4181973;28;20487;-66
2023/12/17 01:04:36;;;;;;;32.27;15.30;;;;;;;4.95;100.00;101331.88;4181135;28;20250;-72
2023/12/17 01:07:02;;;;;;;27.97;13.43;;;;;;;5.00;100.00;101336.97;4180261;28;20362;-71
2023/12/17 01:09:29;;;;;;;33.07;15.63;;;;;;;4.92;100.00;101329.38;4186119;28;20292;-70
2023/12/17 01:11:57;;;;;;;33.00;15.30;;;;;;;4.96;100.00;101344.34;4203094;28;20318;-72
2023/12/17 01:14:24;;;;;;;29.50;14.37;;;;;;;4.94;100.00;101323.91;4177068;28;21833;-71
2023/12/17 01:16:50;;;;;;;29.73;15.70;;;;;;;4.90;100.00;101318.75;4184404;28;22709;-70
2023/12/17 01:19:17;;;;;;;38.03;15.27;;;;;;;4.91;100.00;101304.34;4186910;28;20246;-71
2023/12/17 01:21:44;;;;;;;31.63;15.53;;;;;;;4.93;100.00;101296.25;4184063;28;20347;-72
2023/12/17 01:24:11;;;;;;;39.37;17.17;;;;;;;4.86;100.00;101295.72;4168269;28;20325;-72
2023/12/17 01:26:38;;;;;;;35.03;16.13;;;;;;;4.87;100.00;101304.66;4184537;28;20269;-73
2023/12/17 01:29:04;;;;;;;44.97;16.50;;;;;;;4.85;100.00;101295.81;4183491;28;21565;-72
2023/12/17 01:31:31;;;;;;;42.23;16.87;;;;;;;4.93;100.00;101293.56;4173974;28;20238;-70
2023/12/17 01:33:57;;;;;;;38.20;16.47;;;;;;;4.88;100.00;101292.94;4182951;28;20234;-74
2023/12/17 01:36:24;;;;;;;33.13;17.03;;;;;;;4.86;100.00;101298.41;4189211;28;20523;-72
2023/12/17 01:38:51;;;;;;;36.60;17.43;;;;;;;4.90;100.00;101291.03;4187065;28;20238;-72
2023/12/17 01:41:18;;;;;;;37.13;16.03;;;;;;;4.88;100.00;101283.09;4176218;28;20419;-68
2023/12/17 01:43:44;;;;;;;44.23;17.70;;;;;;;4.86;100.00;101281.44;4174007;28;25120;-72
2023/12/17 01:46:11;;;;;;;34.43;17.20;;;;;;;4.91;100.00;101266.78;4181060;28;20229;-75
2023/12/17 01:48:37;;;;;;;48.13;19.00;;;;;;;4.86;100.00;101265.34;4184591;28;20256;-72
2023/12/17 01:51:04;;;;;;;33.90;16.73;;;;;;;4.94;100.00;101271.13;4179562;28;21260;-71
2023/12/17 01:53:31;;;;;;;36.67;16.50;;;;;;;4.89;100.00;101263.34;4181088;28;20271;-72
2023/12/17 01:55:58;;;;;;;39.77;17.60;;;;;;;5.01;100.00;101263.56;4171446;28;20332;-71
2023/12/17 01:58:25;;;;;;;42.00;19.27;;;;;;;4.89;100.00;101274.09;4182135;28;22441;-71
2023/12/17 02:00:51;;;;;;;44.23;19.33;;;;;;;4.91;100.00;101269.47;4174497;28;21234;-72
2023/12/17 02:03:18;;;;;;;44.97;18.27;;;;;;;4.88;100.00;101260.75;4179610;28;20419;-71
2023/12/17 02:05:46;;;;;;;38.43;17.80;;;;;;;4.88;100.00;101258.06;4180132;28;20420;-70
2023/12/17 02:08:13;;;;;;;51.97;18.77;;;;;;;4.93;100.00;101247.94;4180235;28;20830;-72
2023/12/17 02:10:39;;;;;;;42.10;18.93;;;;;;;4.90;100.00;101256.16;4175294;28;20237;-74
2023/12/17 02:13:09;;;;;;;47.47;18.07;;;;;;;4.90;100.00;101246.31;4174224;28;20304;-73
2023/12/17 02:15:37;;;;;;;44.37;18.17;;;;;;;4.87;100.00;101237.56;4176774;28;20320;-73
2023/12/17 02:18:04;;;;;;;40.67;19.00;;;;;;;4.88;100.00;101247.31;4176658;28;21223;-71
2023/12/17 02:20:34;;;;;;;41.40;18.37;;;;;;;4.89;100.00;101263.34;4180947;28;20229;-73
2023/12/17 02:23:04;;;;;;;42.43;18.80;;;;;;;4.88;100.00;101253.56;4183443;28;20296;-72
2023/12/17 02:25:32;;;;;;;54.17;20.13;;;;;;;4.92;100.00;101240.84;4185376;28;21613;-72
2023/12/17 02:27:59;;;;;;;50.73;18.50;;;;;;;4.94;100.00;101235.38;4176717;28;26467;-70
2023/12/17 02:30:25;;;;;;;45.07;21.07;;;;;;;4.88;100.00;101244.66;4181186;28;21779;-70
2023/12/17 02:32:52;;;;;;;44.60;19.13;;;;;;;4.87;100.00;101249.16;4185833;28;20243;-72
2023/12/17 02:35:21;;;;;;;50.27;20.77;;;;;;;4.91;100.00;101231.06;4180724;28;20232;-70
2023/12/17 02:37:48;;;;;;;46.37;20.37;;;;;;;4.89;100.00;101232.97;4177404;28;20229;-68
2023/12/17 02:40:15;;;;;;;48.33;20.73;;;;;;;4.86;100.00;101238.53;4183816;28;20233;-73
2023/12/17 02:42:42;;;;;;;45.13;20.63;;;;;;;4.87;100.00;101240.25;4183222;28;20224;-73
2023/12/17 02:45:11;;;;;;;49.53;22.10;;;;;;;4.89;100.00;101239.22;4185768;28;20593;-70
2023/12/17 02:47:38;;;;;;;54.30;22.00;;;;;;;4.91;100.00;101236.44;4174898;28;20243;-71
2023/12/17 02:50:05;;;;;;;53.50;20.87;;;;;;;4.89;100.00;101239.22;4177025;28;22036;-71
2023/12/17 02:52:32;;;;;;;51.50;21.63;;;;;;;4.94;100.00;101262.22;4181069;28;20229;-70
2023/12/17 02:54:59;;;;;;;51.60;20.83;;;;;;;4.87;100.00;101251.00;4190196;28;23072;-71
2023/12/17 02:57:26;;;;;;;50.67;21.47;;;;;;;4.99;100.00;101257.41;4180290;28;22411;-72
2023/12/17 02:59:54;;;;;;;53.10;21.03;;;;;;;4.96;100.00;101246.88;4179485;28;20273;-70
2023/12/17 03:02:21;;;;;;;54.87;21.73;;;;;;;4.99;100.00;101249.38;4183237;28;20506;-68
2023/12/17 03:04:48;;;;;;;48.27;20.63;;;;;;;4.95;100.00;101239.78;4189614;28;20341;-70
2023/12/17 03:07:14;;;;;;;48.23;20.93;;;;;;;5.00;100.00;101243.06;4169826;28;20247;-71
2023/12/17 03:09:41;;;;;;;54.77;21.03;;;;;;;5.01;100.00;101258.19;4187676;28;22810;-70
2023/12/17 03:12:08;;;;;;;48.13;21.10;;;;;;;5.09;100.00;101263.97;4178944;28;21893;-70
2023/12/17 03:14:35;;;;;;;52.70;21.87;;;;;;;5.00;100.00;101276.13;4181697;28;20292;-71
2023/12/17 03:17:02;;;;;;;52.47;21.57;;;;;;;4.99;100.00;101265.47;4185309;28;20243;-71
2023/12/17 03:19:29;;;;;;;52.47;21.00;;;;;;;5.02;100.00;101265.31;4184694;28;20249;-71
2023/12/17 03:21:56;;;;;;;49.20;22.17;;;;;;;5.05;100.00;101265.13;4177822;28;21189;-71
2023/12/17 03:24:22;;;;;;;54.97;21.47;;;;;;;5.02;100.00;101265.31;4175471;28;20608;-72
2023/12/17 03:26:49;;;;;;;52.13;22.20;;;;;;;5.06;100.00;101273.09;4185676;28;20315;-70
2023/12/17 03:29:16;;;;;;;49.87;22.33;;;;;;;5.12;100.00;101297.81;4185843;28;20358;-73
2023/12/17 03:31:42;;;;;;;51.23;22.17;;;;;;;5.02;100.00;101281.41;4174259;28;20232;-69
2023/12/17 03:34:10;;;;;;;54.53;21.50;;;;;;;5.04;100.00;101261.56;4183614;28;20225;-69
2023/12/17 03:36:37;;;;;;;49.63;21.93;;;;;;;5.03;100.00;101267.03;4185250;28;21217;-71
2023/12/17 03:39:04;;;;;;;55.20;22.60;;;;;;;5.10;100.00;101264.88;4180664;28;20367;-70
2023/12/17 03:41:31;;;;;;;56.93;23.20;;;;;;;5.09;100.00;101272.03;4186625;28;21635;-70
2023/12/17 03:43:58;;;;;;;51.60;21.77;;;;;;;5.06;100.00;101270.41;4179552;28;21085;-71
2023/12/17 03:46:25;;;;;;;51.47;22.17;;;;;;;5.07;100.00;101260.53;4176703;28;21834;-70
2023/12/17 03:48:52;;;;;;;58.67;22.47;;;;;;;5.07;100.00;101260.53;4188085;28;20263;-72
2023/12/17 03:51:19;;;;;;;58.77;23.73;;;;;;;5.05;100.00;101265.13;4206705;28;20239;-70
2023/12/17 03:53:46;;;;;;;62.83;23.87;;;;;;;5.05;100.00;101266.00;4189767;28;20261;-70
2023/12/17 03:56:15;;;;;;;65.33;22.80;;;;;;;5.04;100.00;101258.03;4183796;28;20284;-70
2023/12/17 03:58:42;;;;;;;61.30;24.17;;;;;;;5.11;100.00;101256.72;4189501;28;20258;-70
2023/12/17 04:01:09;;;;;;;55.60;23.30;;;;;;;5.03;100.00;101246.41;4192458;28;20238;-69
2023/12/17 04:03:36;;;;;;;54.37;24.43;;;;;;;5.00;100.00;101243.06;4185960;28;20249;-70
2023/12/17 04:06:05;;;;;;;56.90;24.20;;;;;;;5.03;100.00;101242.88;4193098;28;20245;-71
2023/12/17 04:08:32;;;;;;;67.53;25.60;;;;;;;5.05;100.00;101251.72;4207281;28;20233;-69
2023/12/17 04:10:59;;;;;;;64.43;24.20;;;;;;;5.07;100.00;101258.72;4174229;28;21182;-70
2023/12/17 04:13:25;;;;;;;66.33;24.87;;;;;;;5.05;100.00;101267.81;4180943;28;20343;-70
2023/12/17 04:15:52;;;;;;;63.20;26.17;;;;;;;5.06;100.00;101264.19;4188625;28;20233;-71
2023/12/17 04:18:18;;;;;;;61.17;26.87;;;;;;;5.05;100.00;101273.19;4195641;28;20297;-71
2023/12/17 04:20:45;;;;;;;61.07;25.87;;;;;;;5.05;100.00;101279.41;4181847;28;21689;-72
2023/12/17 04:23:12;;;;;;;60.70;26.10;;;;;;;5.07;100.00;101284.66;4179335;28;20252;-71
2023/12/17 04:25:39;;;;;;;60.43;26.50;;;;;;;5.07;100.00;101265.88;4187681;28;21421;-71
2023/12/17 04:28:05;;;;;;;65.23;26.37;;;;;;;5.12;100.00;101265.63;4184467;28;21177;-71
2023/12/17 04:30:32;;;;;;;62.13;25.63;;;;;;;5.08;100.00;101268.50;4180731;28;20232;-70
2023/12/17 04:32:59;;;;;;;68.17;27.10;;;;;;;5.07;100.00;101268.56;4199705;28;20273;-70
2023/12/17 04:35:26;;;;;;;62.40;27.03;;;;;;;5.03;100.00;101265.19;4183256;28;20307;-70
2023/12/17 04:37:53;;;;;;;66.67;26.77;;;;;;;5.07;100.00;101261.41;4184991;28;25620;-69
2023/12/17 04:40:19;;;;;;;70.53;29.50;;;;;;;5.12;100.00;101277.22;4183363;28;22529;-69
2023/12/17 04:42:46;;;;;;;68.70;29.03;;;;;;;5.06;100.00;101269.56;4185496;28;20233;-70
2023/12/17 04:45:12;;;;;;;74.47;28.37;;;;;;;5.08;100.00;101267.63;4184115;28;20277;-71
2023/12/17 04:47:39;;;;;;;72.30;27.83;;;;;;;5.15;100.00;101273.50;4190458;28;20618;-72
2023/12/17 04:50:07;;;;;;;68.50;29.97;;;;;;;5.11;100.00;101269.25;4179692;28;22505;-70
2023/12/17 04:52:34;;;;;;;81.77;29.97;;;;;;;5.15;100.00;101279.72;4188523;28;20397;-71
2023/12/17 04:55:03;;;;;;;70.63;27.67;;;;;;;5.13;100.00;101275.41;4188777;28;20517;-71
2023/12/17 04:57:30;;;;;;;72.50;29.80;;;;;;;5.15;100.00;101278.88;4191297;28;20233;-69
2023/12/17 04:59:57;;;;;;;71.13;28.40;;;;;;;5.23;100.00;101268.53;4190720;28;22332;-69
2023/12/17 05:02:23;;;;;;;79.50;30.10;;;;;;;5.18;100.00;101249.13;4174724;28;21312;-71
2023/12/17 05:04:50;;;;;;;80.87;29.70;;;;;;;5.22;100.00;101253.38;4187580;28;20247;-71
2023/12/17 05:07:17;;;;;;;75.57;29.73;;;;;;;5.17;100.00;101266.22;4183519;28;20229;-69
2023/12/17 05:09:44;;;;;;;76.57;29.37;;;;;;;5.20;100.00;101257.97;4182635;28;24128;-70
2023/12/17 05:12:10;;;;;;;82.50;29.57;;;;;;;5.23;100.00;101257.81;4176696;28;20966;-69
2023/12/17 05:14:37;;;;;;;81.73;30.47;;;;;;;5.21;100.00;101262.38;4185902;28;20296;-68
2023/12/17 05:17:04;;;;;;;81.17;30.17;;;;;;;5.20;100.00;101268.72;4186717;28;20351;-73
2023/12/17 05:19:30;;;;;;;73.80;29.63;;;;;;;5.30;100.00;101279.75;4179814;28;20237;-72
2023/12/17 05:21:57;;;;;;;70.67;28.87;;;;;;;5.34;100.00;101276.78;4189487;28;22185;-72
2023/12/17 05:24:24;;;;;;;73.67;28.57;;;;;;;5.33;100.00;101276.91;4182779;28;20312;-69
2023/12/17 05:26:51;;;;;;;70.30;28.70;;;;;;;5.28;100.00;101276.31;4182089;28;20374;-70
2023/12/17 05:29:17;;;;;;;76.80;29.83;;;;;;;5.34;100.00;101284.84;4176494;28;20605;-70
2023/12/17 05:31:44;;;;;;;81.50;29.30;;;;;;;5.29;100.00;101276.22;4177671;28;20233;-71
2023/12/17 05:34:10;;;;;;;75.50;28.17;;;;;;;5.29;100.00;101284.28;4189535;28;20288;-71
2023/12/17 05:36:37;;;;;;;72.53;29.00;;;;;;;5.33;100.00;101287.63;4180943;28;21504;-69
2023/12/17 05:39:04;;;;;;;76.43;29.17;;;;;;;5.40;100.00;101294.34;4184453;28;20235;-71
2023/12/17 05:41:30;;;;;;;70.63;28.13;;;;;;;5.40;100.00;101291.69;4176978;28;20233;-70
2023/12/17 05:43:57;;;;;;;70.03;28.10;;;;;;;5.37;100.00;101287.34;4194389;28;20227;-69
2023/12/17 05:46:25;;;;;;;73.77;28.73;;;;;;;5.38;100.00;101283.72;4185384;28;26777;-68
2023/12/17 05:48:52;;;;;;;74.67;28.47;;;;;;;5.39;100.00;101288.13;4174447;28;20577;-71
2023/12/17 05:51:20;;;;;;;84.90;30.70;;;;;;;5.38;100.00;101291.78;4195889;28;20725;-70
2023/12/17 05:53:47;;;;;;;70.27;27.97;;;;;;;5.44;100.00;101297.72;4195743;28;20236;-72
2023/12/17 05:56:14;;;;;;;67.90;27.80;;;;;;;5.46;100.00;101293.13;4186473;28;20255;-69
2023/12/17 05:58:41;;;;;;;77.77;28.80;;;;;;;5.48;100.00;101291.19;4185335;28;20232;-69
2023/12/17 06:01:10;;;;;;;78.67;29.20;;;;;;;5.47;100.00;101294.88;4183099;28;25217;-70
2023/12/17 06:03:37;;;;;;;65.20;26.83;;;;;;;5.50;100.00;101300.91;4184383;28;20320;-70
2023/12/17 06:06:06;;;;;;;86.07;28.20;;;;;;;5.47;100.00;101303.78;4180109;28;21615;-69
2023/12/17 06:08:32;;;;;;;68.97;27.23;;;;;;;5.51;100.00;101302.63;4180316;28;20237;-70
2023/12/17 06:10:59;;;;;;;69.00;27.37;;;;;;;5.52;100.00;101306.19;4192324;28;20242;-73
2023/12/17 06:13:26;;;;;;;71.77;27.63;;;;;;;5.48;100.00;101305.50;4182198;28;20250;-68
2023/12/17 06:15:52;;;;;;;67.13;27.93;;;;;;;5.50;100.00;101306.28;4181757;28;21645;-69
2023/12/17 06:18:19;;;;;;;77.80;27.23;;;;;;;5.44;100.00;101313.84;4183559;28;20459;-70
2023/12/17 06:20:46;;;;;;;75.47;28.07;;;;;;;5.48;100.00;101312.69;4183796;28;20237;-71
2023/12/17 06:23:14;;;;;;;75.27;26.80;;;;;;;5.52;100.00;101311.56;4194519;28;20237;-70
2023/12/17 06:25:41;;;;;;;69.20;28.10;;;;;;;5.48;100.00;101312.69;4185110;28;22349;-70
2023/12/17 06:28:07;;;;;;;75.13;27.83;;;;;;;5.51;100.00;101318.72;4170848;28;20276;-69
2023/12/17 06:30:35;;;;;;;78.23;28.00;;;;;;;5.53;100.00;101319.50;4178076;28;20301;-70
2023/12/17 06:33:02;;;;;;;77.50;28.27;;;;;;;5.55;100.00;101322.13;4185919;28;20237;-69
2023/12/17 06:35:29;;;;;;;65.33;27.27;;;;;;;5.52;100.00;101317.78;4179008;28;20238;-72
2023/12/17 06:37:56;;;;;;;75.93;27.47;;;;;;;5.51;100.00;101310.66;4176574;28;21158;-71
2023/12/17 06:40:23;;;;;;;70.53;26.60;;;;;;;5.55;100.00;101312.22;4188241;28;20237;-71
2023/12/17 06:42:49;;;;;;;76.43;27.93;;;;;;;5.58;100.00;101307.63;4183364;28;20524;-68
2023/12/17 06:45:16;;;;;;;68.80;25.90;;;;;;;5.55;100.00;101316.75;4181671;28;20351;-69
2023/12/17 06:47:44;;;;;;;74.83;26.70;;;;;;;5.47;100.00;101310.97;4186798;28;21886;-69
2023/12/17 06:50:12;;;;;;;82.90;29.27;;;;;;;5.52;100.00;101327.66;4191700;28;20249;-71
2023/12/17 06:52:39;;;;;;;77.40;27.83;;;;;;;5.52;100.00;101325.81;4179845;28;21947;-69
2023/12/17 06:55:07;;;;;;;74.57;27.97;;;;;;;5.56;100.00;101334.56;4181289;28;23539;-69
2023/12/17 06:57:36;;;;;;;74.03;27.57;;;;;;;5.58;100.00;101323.75;4183601;28;20233;-72
2023/12/17 07:00:03;;;;;;;69.57;27.63;;;;;;;5.58;100.00;101329.97;4182031;28;20607;-73
2023/12/17 07:02:32;;;;;;;75.43;28.83;;;;;;;5.54;100.00;101323.06;4177594;28;20243;-72
2023/12/17 07:04:58;;;;;;;74.53;28.97;;;;;;;5.58;100.00;101329.97;4183853;28;20308;-72
2023/12/17 07:07:25;;;;;;;80.43;29.30;;;;;;;5.52;100.00;101328.50;4188135;28;20806;-72
2023/12/17 07:09:53;;;;;;;77.77;29.83;;;;;;;5.59;100.00;101339.75;4183870;28;20364;-73
2023/12/17 07:12:22;;;;;;;83.53;30.73;;;;;;;5.52;100.00;101343.78;4207745;28;20252;-72
2023/12/17 07:14:49;;;;;;;78.37;29.13;;;;;;;5.51;100.00;101353.63;4208000;28;25580;-65
2023/12/17 07:17:16;;;;;;;86.33;30.53;;;;;;;5.56;100.00;101366.78;4186702;28;20232;-73
2023/12/17 07:19:42;;;;;;;80.70;29.13;;;;;;;5.76;100.00;101372.81;4215697;28;22323;-55
2023/12/17 07:22:09;;;;;;;83.90;29.80;;;;;;;5.63;100.00;101383.41;4188475;28;20325;-73
2023/12/17 07:24:36;;;;;;;80.60;31.77;;;;;;;5.73;100.00;101384.59;4180418;28;20791;-73
2023/12/17 07:27:03;;;;;;;85.23;31.40;;;;;;;5.75;100.00;101392.56;4192979;28;20292;-74
2023/12/17 07:29:30;;;;;;;80.73;29.30;;;;;;;5.65;100.00;101382.38;4199596;28;20373;-72
2023/12/17 07:31:56;;;;;;;80.63;29.40;;;;;;;5.66;100.00;101394.84;4201192;28;20233;-72
2023/12/17 07:34:23;;;;;;;73.00;28.53;;;;;;;5.63;100.00;101386.09;4177473;28;21707;-77
2023/12/17 07:36:50;;;;;;;82.23;29.23;;;;;;;5.60;100.00;101383.59;4202033;28;20226;-70
2023/12/17 07:39:18;;;;;;;85.97;30.20;;;;;;;5.61;100.00;101388.91;4193812;28;21684;-74
2023/12/17 07:41:46;;;;;;;92.30;31.03;;;;;;;5.64;100.00;101394.06;4174632;28;20601;-75
2023/12/17 07:44:13;;;;;;;81.30;29.97;;;;;;;5.72;100.00;101394.47;4199501;28;20231;-74
2023/12/17 07:46:39;;;;;;;90.33;32.10;;;;;;;5.64;100.00;101388.69;4196582;28;20246;-73
2023/12/17 07:49:06;;;;;;;80.33;30.50;;;;;;;5.67;100.00;101383.16;4185643;28;25720;-72
2023/12/17 07:51:34;;;;;;;75.97;29.33;;;;;;;5.73;100.00;101384.59;4180138;28;20243;-79
2023/12/17 07:54:01;;;;;;;73.27;30.07;;;;;;;5.71;100.00;101384.69;4196023;28;21336;-72
2023/12/17 07:56:28;;;;;;;81.67;29.17;;;;;;;5.69;100.00;101388.41;4188724;28;20236;-72
2023/12/17 07:58:55;;;;;;;88.57;30.00;;;;;;;5.71;100.00;101397.25;4207987;28;20247;-73
2023/12/17 08:01:28;;;;;;;82.87;29.00;;;;;;;5.70;100.00;101400.91;4168049;28;20343;-72
2023/12/17 08:03:55;;;;;;;81.87;29.10;;;;;;;5.78;100.00;101405.84;4190251;28;20820;-74
2023/12/17 08:06:26;;;;;;;79.63;27.93;;;;;;;5.80;100.00;101398.50;4182544;28;20316;-76
2023/12/17 08:08:54;;;;;;;71.20;28.97;;;;;;;5.82;100.00;101401.97;4179440;28;20228;-72
2023/12/17 08:11:21;;;;;;;73.23;29.03;;;;;;;5.77;100.00;101399.56;4183781;28;20243;-72
2023/12/17 08:13:48;;;;;;;79.63;28.20;;;;;;;5.81;100.00;101402.94;4195050;28;21245;-71
2023/12/17 08:16:15;;;;;;;77.23;29.20;;;;;;;5.78;100.00;101404.00;4185743;28;20243;-69
2023/12/17 08:18:41;;;;;;;80.33;28.83;;;;;;;5.89;100.00;101410.56;4180497;28;20239;-72
2023/12/17 08:21:09;;;;;;;83.07;30.97;;;;;;;5.86;100.00;101417.84;4178172;28;20509;-72
2023/12/17 08:23:36;;;;;;;75.80;28.30;;;;;;;5.89;100.00;101418.63;4184614;28;20231;-72
2023/12/17 08:26:05;;;;;;;70.77;29.13;;;;;;;5.83;100.00;101415.31;4191684;28;20233;-72
2023/12/17 08:28:32;;;;;;;80.47;28.00;;;;;;;5.88;100.00;101431.16;4183947;28;25560;-73
2023/12/17 08:30:59;;;;;;;74.87;27.97;;;;;;;5.92;100.00;101426.47;4195610;28;20563;-73
2023/12/17 08:33:27;;;;;;;74.30;27.80;;;;;;;5.98;100.00;101428.78;4182914;28;20448;-73
2023/12/17 08:35:54;;;;;;;74.83;28.40;;;;;;;6.00;100.00;101425.06;4209091;28;20319;-75
2023/12/17 08:38:21;;;;;;;70.97;27.50;;;;;;;5.90;100.00;101425.69;4207324;28;20233;-73
2023/12/17 08:40:48;;;;;;;75.57;27.03;;;;;;;5.93;100.00;101426.38;4191193;28;20268;-70
2023/12/17 08:43:15;;;;;;;72.13;27.77;;;;;;;5.94;100.00;101414.66;4187147;28;20237;-72
2023/12/17 08:45:41;;;;;;;71.73;26.80;;;;;;;5.96;100.00;101426.19;4190007;28;21584;-72
2023/12/17 08:48:09;;;;;;;76.53;27.00;;;;;;;6.02;100.00;101428.53;4181683;28;20241;-75
2023/12/17 08:50:36;;;;;;;62.33;26.07;;;;;;;6.05;100.00;101424.78;4211742;28;20256;-70
2023/12/17 08:53:02;;;;;;;65.83;25.67;;;;;;;6.04;100.00;101425.78;4218293;28;20550;-68
2023/12/17 08:55:29;;;;;;;69.13;27.17;;;;;;;6.00;100.00;101426.91;4238890;28;20258;-71
2023/12/17 08:57:56;;;;;;;68.77;27.53;;;;;;;5.98;100.00;101416.22;4204111;28;20233;-69
2023/12/17 09:00:23;;;;;;;64.27;26.47;;;;;;;6.11;100.00;101421.75;4212877;28;20248;-72
2023/12/17 09:02:50;;;;;;;73.13;27.70;;;;;;;6.05;100.00;101419.41;4190307;28;20268;-71
2023/12/17 09:05:17;;;;;;;71.93;27.93;;;;;;;6.01;100.00;101415.19;4224364;28;20237;-72
2023/12/17 09:07:44;;;;;;;71.73;28.07;;;;;;;6.02;100.00;101415.09;4214674;28;21232;-71
2023/12/17 09:10:11;;;;;;;66.53;25.87;;;;;;;6.04;100.00;101409.66;4207008;28;21925;-71
2023/12/17 09:12:38;;;;;;;70.57;27.23;;;;;;;6.02;100.00;101408.88;4216181;28;20368;-72
2023/12/17 09:15:05;;;;;;;65.40;26.87;;;;;;;6.09;100.00;101402.16;4204593;28;20238;-72
2023/12/17 09:17:34;;;;;;;75.93;28.63;;;;;;;6.02;100.00;101396.28;4216927;28;20452;-72
2023/12/17 09:20:01;;;;;;;70.70;27.33;;;;;;;6.01;100.00;101404.44;4222242;28;20556;-69
2023/12/17 09:22:27;;;;;;;68.83;27.57;;;;;;;6.03;100.00;101406.09;4209689;28;20232;-71
2023/12/17 09:24:54;;;;;;;71.17;27.83;;;;;;;6.03;100.00;101407.91;4214169;28;22161;-71
2023/12/17 09:27:21;;;;;;;74.77;29.17;;;;;;;6.00;100.00;101410.78;4182751;28;20244;-69
2023/12/17 09:29:48;;;;;;;72.00;27.13;;;;;;;6.02;100.00;101420.47;4177861;28;21120;-69
2023/12/17 09:32:14;;;;;;;75.27;28.63;;;;;;;6.02;100.00;101417.78;4197168;28;20237;-73
2023/12/17 09:34:41;;;;;;;74.20;27.53;;;;;;;6.03;100.00;101418.66;4190037;28;20236;-69
2023/12/17 09:37:08;;;;;;;76.07;28.47;;;;;;;5.98;100.00;101412.66;4187719;28;20254;-65
2023/12/17 09:39:35;;;;;;;77.70;29.57;;;;;;;5.96;100.00;101411.91;4192382;28;20242;-69
2023/12/17 09:42:03;;;;;;;78.37;29.33;;;;;;;6.01;100.00;101409.81;4197918;28;20309;-72
2023/12/17 09:44:30;;;;;;;77.20;29.90;;;;;;;5.96;100.00;101415.44;4182381;28;22181;-72
2023/12/17 09:46:57;;;;;;;80.67;29.67;;;;;;;6.05;100.00;101415.88;4208117;28;20243;-71
2023/12/17 09:49:24;;;;;;;80.50;28.77;;;;;;;6.03;100.00;101414.16;4184235;28;20237;-69
2023/12/17 09:52:04;;;;;;;75.30;29.03;;;;;;;6.03;100.00;101410.59;4190331;28;22440;-68
2023/12/17 09:54:31;;;;;;;75.47;29.57;;;;;;;6.00;100.00;101418.84;4183965;28;20240;-73
2023/12/17 09:57:00;;;;;;;72.17;28.47;;;;;;;6.03;100.00;101418.66;4182665;28;21106;-69
2023/12/17 09:59:26;;;;;;;70.63;28.13;;;;;;;6.02;100.00;101415.09;4198130;28;20260;-70
2023/12/17 10:01:53;;;;;;;73.57;28.43;;;;;;;5.98;100.00;101405.47;4199926;28;20263;-68
2023/12/17 10:04:28;;;;;;;79.90;28.80;;;;;;;6.02;100.00;101411.56;4190293;28;21652;-70
2023/12/17 10:06:55;;;;;;;78.43;29.77;;;;;;;6.03;100.00;101407.91;4197809;28;20248;-68
2023/12/17 10:09:22;;;;;;;70.63;28.03;;;;;;;6.07;100.00;101404.06;4209263;28;20237;-71
2023/12/17 10:11:49;;;;;;;69.27;28.67;;;;;;;6.08;100.00;101391.50;4204175;28;20249;-70
2023/12/17 10:14:26;;;;;;;70.40;27.47;;;;;;;6.12;100.00;101395.72;4166847;28;20241;-69
2023/12/17 10:16:53;;;;;;;71.77;27.43;;;;;;;6.16;100.00;101394.56;4192415;28;20336;-71
2023/12/17 10:19:19;;;;;;;69.00;27.90;;;;;;;6.12;100.00;101391.19;4211252;28;20245;-69
2023/12/17 10:21:47;;;;;;;69.70;27.83;;;;;;;6.12;100.00;101396.56;4177167;28;20313;-70
2023/12/17 10:24:14;;;;;;;68.43;27.83;;;;;;;6.13;100.00;101401.00;4187359;28;20256;-71
2023/12/17 10:26:45;;;;;;;71.60;26.77;;;;;;;6.16;100.00;101391.88;4195865;28;20315;-70
2023/12/17 10:29:18;;;;;;;66.30;27.50;;;;;;;6.14;100.00;101399.19;4183531;28;21181;-70
2023/12/17 10:31:45;;;;;;;70.77;27.70;;;;;;;6.10;100.00;101397.63;4178459;28;22064;-71
2023/12/17 10:34:19;;;;;;;74.80;28.50;;;;;;;6.13;100.00;101394.78;4181401;28;20284;-72
2023/12/17 10:36:50;;;;;;;72.10;26.83;;;;;;;6.10;100.00;101382.38;4183564;28;20248;-71
2023/12/17 10:39:19;;;;;;;73.33;28.87;;;;;;;6.16;100.00;101390.06;4202497;28;20553;-72
2023/12/17 10:41:51;;;;;;;75.60;28.63;;;;;;;6.21;100.00;101399.66;4184749;28;25078;-68
2023/12/17 10:44:21;;;;;;;72.67;28.17;;;;;;;6.19;100.00;101394.38;4178100;28;20592;-69
2023/12/17 10:46:48;;;;;;;69.50;28.00;;;;;;;6.23;100.00;101385.16;4191115;28;20238;-72
2023/12/17 10:49:18;;;;;;;70.67;27.03;;;;;;;6.17;100.00;101394.50;4205257;28;20346;-72
2023/12/17 10:51:46;;;;;;;67.53;28.50;;;;;;;6.18;100.00;101368.44;4177158;28;21242;-70
2023/12/17 10:54:13;;;;;;;66.90;27.50;;;;;;;6.16;100.00;101378.44;4178794;28;20234;-72
2023/12/17 10:56:46;;;;;;;71.03;26.33;;;;;;;6.18;100.00;101381.91;4187207;28;20934;-71
2023/12/17 10:59:24;;;;;;;70.53;26.87;;;;;;;6.25;100.00;101369.78;4204399;28;20276;-68
2023/12/17 11:02:07;;;;;;;73.13;27.83;;;;;;;6.27;100.00;101373.25;4177472;28;20260;-73
2023/12/17 11:04:34;;;;;;;74.17;28.07;;;;;;;6.28;100.00;101372.31;4188003;28;20295;-69
2023/12/17 11:07:02;;;;;;;73.87;28.27;;;;;;;6.24;100.00;101375.28;4190429;28;20448;-68
2023/12/17 11:09:29;;;;;;;74.47;27.00;;;;;;;6.27;100.00;101373.25;4190228;28;20404;-69